Time;durP1;ratioP1;P1;durP2;ratioP2;P2;SDS_P1;SDS_P2;PMS_P1;PMS_P2;Temp;Humidity;BMP_temperature;BMP_pressure;BME280_temperature;BME280_humidity;BME280_pressure;Samples;Min_cycle;Max_cycle;Signal;HPM_P1;HPM_P2
2022/05/16 00:00:26;;;;;;;5.40;2.67;;;14.30;1.00;;;;;;5060093;28;20814;-80
2022/05/16 00:02:52;;;;;;;8.20;2.90;;;14.30;1.00;;;;;;5062344;28;20225;-81
2022/05/16 00:05:19;;;;;;;5.63;2.80;;;14.30;1.00;;;;;;5063420;28;20634;-80
2022/05/16 00:07:45;;;;;;;9.50;3.20;;;14.20;1.00;;;;;;5063352;28;20218;-79
2022/05/16 00:10:11;;;;;;;7.90;3.50;;;14.20;1.00;;;;;;5060158;28;20187;-80
2022/05/16 00:12:37;;;;;;;5.50;2.97;;;14.20;1.00;;;;;;5059804;28;20700;-80
2022/05/16 00:15:05;;;;;;;5.50;3.00;;;14.20;1.00;;;;;;5062518;28;20183;-80
2022/05/16 00:17:31;;;;;;;4.30;3.10;;;14.10;1.00;;;;;;5044609;28;20405;-80
2022/05/16 00:19:56;;;;;;;5.70;2.77;;;14.10;1.00;;;;;;5063539;28;20228;-80
2022/05/16 00:22:24;;;;;;;5.47;2.73;;;14.00;1.00;;;;;;5063031;28;20176;-80
2022/05/16 00:24:49;;;;;;;7.33;3.13;;;14.00;1.00;;;;;;5063346;28;20190;-80
2022/05/16 00:27:15;;;;;;;7.03;3.20;;;14.00;1.00;;;;;;5045084;28;20196;-80
2022/05/16 00:29:41;;;;;;;6.17;3.27;;;13.90;1.00;;;;;;5062450;28;20668;-80
2022/05/16 00:32:08;;;;;;;5.60;2.43;;;13.90;1.00;;;;;;5061579;28;20214;-80
2022/05/16 00:34:34;;;;;;;5.57;2.87;;;13.90;1.00;;;;;;5042608;28;22047;-80
2022/05/16 00:37:00;;;;;;;6.97;3.20;;;13.90;1.00;;;;;;5042908;28;20598;-80
2022/05/16 00:39:25;;;;;;;4.73;2.70;;;13.80;47.80;;;;;;5059905;28;20344;-80
2022/05/16 00:41:52;;;;;;;6.17;3.50;;;13.70;46.40;;;;;;5061673;28;20648;-80
2022/05/16 00:44:19;;;;;;;9.70;3.60;;;13.80;18.30;;;;;;5060551;28;20195;-81
2022/05/16 00:46:47;;;;;;;5.73;2.50;;;13.70;51.30;;;;;;5063089;28;20554;-79
2022/05/16 00:49:24;;;;;;;5.57;2.80;;;13.70;89.00;;;;;;5061785;28;20242;-80
2022/05/16 00:52:05;;;;;;;5.43;3.07;;;13.70;95.60;;;;;;5042757;28;20695;-80
2022/05/16 00:54:35;;;;;;;6.17;3.20;;;13.60;88.40;;;;;;5063603;28;20160;-80
2022/05/16 00:57:04;;;;;;;6.67;3.33;;;13.70;93.00;;;;;;5062641;28;20203;-80
2022/05/16 01:00:03;;;;;;;7.70;3.30;;;13.60;99.90;;;;;;5061843;28;20671;-79
2022/05/16 01:05:16;;;;;;;6.50;2.60;;;13.50;99.90;;;;;;5061773;28;20259;-80
2022/05/16 01:07:44;;;;;;;5.47;2.70;;;13.50;99.90;;;;;;5062553;28;20696;-80
2022/05/16 01:10:13;;;;;;;4.27;2.93;;;13.50;99.90;;;;;;5061505;28;20314;-80
2022/05/16 01:12:43;;;;;;;5.40;2.97;;;13.50;99.90;;;;;;5042874;28;20179;-80
2022/05/16 01:15:15;;;;;;;7.60;3.13;;;13.40;99.90;;;;;;5042508;28;20179;-80
2022/05/16 01:17:41;;;;;;;5.80;2.90;;;13.40;99.90;;;;;;5059977;28;20207;-80
2022/05/16 01:20:09;;;;;;;4.23;2.50;;;13.50;99.90;;;;;;5057707;28;20222;-80
2022/05/16 01:22:38;;;;;;;4.60;2.87;;;13.40;99.90;;;;;;5042150;28;20171;-80
2022/05/16 01:25:10;;;;;;;7.63;3.07;;;13.40;99.90;;;;;;5057366;28;20251;-80
2022/05/16 01:27:47;;;;;;;6.23;3.03;;;13.40;99.90;;;;;;5059351;28;20192;-79
2022/05/16 01:30:15;;;;;;;7.20;3.70;;;13.40;99.90;;;;;;5041666;28;20182;-80
2022/05/16 01:32:40;;;;;;;4.47;2.97;;;13.30;99.90;;;;;;5041856;28;20183;-80
2022/05/16 01:35:07;;;;;;;4.73;2.87;;;13.30;99.90;;;;;;5042202;28;20641;-80
2022/05/16 01:40:17;;;;;;;6.27;3.20;;;13.30;99.90;;;;;;5059438;28;20249;-80
2022/05/16 01:42:42;;;;;;;3.93;2.93;;;13.20;99.90;;;;;;5060372;28;20171;-80
2022/05/16 01:45:08;;;;;;;6.83;2.87;;;13.20;99.90;;;;;;5042342;28;20171;-80
2022/05/16 01:47:34;;;;;;;6.57;3.07;;;13.20;99.90;;;;;;5060526;28;20191;-79
2022/05/16 01:49:59;;;;;;;4.10;3.03;;;13.20;99.90;;;;;;5059778;28;20178;-80
2022/05/16 01:52:25;;;;;;;4.10;2.83;;;13.10;99.90;;;;;;5058679;28;20210;-80
2022/05/16 01:54:51;;;;;;;4.63;3.10;;;13.20;99.90;;;;;;5041673;28;20183;-80
2022/05/16 01:57:17;;;;;;;5.27;3.00;;;13.10;99.90;;;;;;5060007;28;20234;-80
2022/05/16 01:59:42;;;;;;;6.23;3.10;;;13.10;99.90;;;;;;5061238;28;20195;-80
2022/05/16 02:02:08;;;;;;;3.73;3.00;;;13.10;99.90;;;;;;5058776;28;20180;-80
2022/05/16 02:04:34;;;;;;;7.47;2.87;;;13.10;99.90;;;;;;5059866;28;20175;-80
2022/05/16 02:07:00;;;;;;;6.17;3.17;;;13.10;99.90;;;;;;5041401;28;20249;-80
2022/05/16 02:09:26;;;;;;;5.73;3.37;;;13.10;99.90;;;;;;5058957;28;20176;-80
2022/05/16 02:11:51;;;;;;;5.53;3.47;;;13.00;99.90;;;;;;5059986;28;20207;-80
2022/05/16 02:14:17;;;;;;;6.03;3.50;;;13.10;99.90;;;;;;5060141;28;20178;-80
2022/05/16 02:16:43;;;;;;;5.50;3.50;;;13.00;99.90;;;;;;5058390;28;20223;-80
2022/05/16 02:19:08;;;;;;;4.97;3.23;;;13.00;99.90;;;;;;5061448;28;20195;-80
2022/05/16 02:27:02;;;;;;;5.70;3.37;;;13.00;99.90;;;;;;5061080;28;20199;-80
2022/05/16 02:29:28;;;;;;;7.87;3.80;;;13.10;99.90;;;;;;5042030;28;20175;-79
2022/05/16 02:31:54;;;;;;;5.80;3.20;;;13.00;99.90;;;;;;5057986;28;20252;-80
2022/05/16 02:34:20;;;;;;;5.87;3.53;;;13.00;99.90;;;;;;5041030;28;20179;-79
2022/05/16 02:36:46;;;;;;;4.37;2.80;;;13.00;99.90;;;;;;5060031;28;20214;-79
2022/05/16 02:39:13;;;;;;;5.53;3.53;;;13.00;99.90;;;;;;5041162;28;20742;-80
2022/05/16 02:41:39;;;;;;;6.17;3.30;;;12.90;99.90;;;;;;5059313;28;20511;-80
2022/05/16 02:44:05;;;;;;;5.07;3.20;;;12.90;99.90;;;;;;5041082;28;20183;-79
2022/05/16 02:46:31;;;;;;;5.10;3.27;;;12.80;99.90;;;;;;5040904;28;20616;-80
2022/05/16 02:48:57;;;;;;;5.97;3.33;;;12.80;99.90;;;;;;5058305;28;20183;-80
2022/05/16 02:51:22;;;;;;;7.23;3.30;;;12.80;99.90;;;;;;5041371;28;20172;-80
2022/05/16 02:53:48;;;;;;;5.73;3.87;;;12.80;99.90;;;;;;5058627;28;20191;-80
2022/05/16 02:56:14;;;;;;;5.00;3.47;;;12.80;99.90;;;;;;5058818;28;20230;-79
2022/05/16 02:58:40;;;;;;;7.73;3.83;;;12.80;99.90;;;;;;5039958;28;20176;-80
2022/05/16 03:01:07;;;;;;;3.83;2.80;;;12.70;99.90;;;;;;5058932;28;20567;-80
2022/05/16 03:03:32;;;;;;;7.40;3.43;;;12.70;99.90;;;;;;5058350;28;20227;-79
2022/05/16 03:05:58;;;;;;;5.17;3.20;;;12.70;99.90;;;;;;5040919;28;20230;-79
2022/05/16 03:08:24;;;;;;;5.20;3.10;;;12.70;99.90;;;;;;5058438;28;20178;-79
2022/05/16 03:10:50;;;;;;;7.13;3.30;;;12.70;99.90;;;;;;5057175;28;20233;-80
2022/05/16 03:13:15;;;;;;;4.77;3.00;;;12.60;99.90;;;;;;5061417;28;20171;-80
2022/05/16 03:15:41;;;;;;;5.03;3.67;;;12.60;99.90;;;;;;5047442;28;20179;-80
2022/05/16 03:18:07;;;;;;;5.60;3.00;;;12.60;99.90;;;;;;5063152;28;20175;-79
2022/05/16 03:20:32;;;;;;;5.17;3.23;;;12.60;99.90;;;;;;5061371;28;20207;-80
2022/05/16 03:22:58;;;;;;;7.07;3.50;;;12.60;99.90;;;;;;5062059;28;20264;-80
2022/05/16 03:25:23;;;;;;;5.63;3.50;;;12.60;99.90;;;;;;5060864;28;20550;-80
2022/05/16 03:27:49;;;;;;;5.43;3.20;;;12.50;99.90;;;;;;5062779;28;20251;-80
2022/05/16 03:30:15;;;;;;;5.47;3.20;;;12.50;99.90;;;;;;5062739;28;20171;-79
2022/05/16 03:32:40;;;;;;;5.57;3.13;;;12.50;99.90;;;;;;5046340;28;20191;-79
2022/05/16 03:35:07;;;;;;;9.87;3.63;;;12.40;99.90;;;;;;5065040;28;20266;-80
2022/05/16 03:37:32;;;;;;;6.90;3.20;;;12.40;99.90;;;;;;5078725;22;20231;-76
2022/05/16 03:42:42;;;;;;;7.07;3.53;;;12.40;99.90;;;;;;5056525;28;20206;-77
2022/05/16 03:45:08;;;;;;;6.47;3.67;;;12.40;99.90;;;;;;5055755;28;20168;-77
2022/05/16 03:47:34;;;;;;;10.70;3.97;;;12.40;99.90;;;;;;5055869;28;20188;-76
2022/05/16 03:49:59;;;;;;;5.67;3.10;;;12.40;99.90;;;;;;5038442;28;20175;-76
2022/05/16 03:52:25;;;;;;;6.30;3.70;;;12.30;99.90;;;;;;5035578;28;20176;-77
2022/05/16 03:54:50;;;;;;;6.13;3.67;;;12.40;99.90;;;;;;5018598;28;20184;-77
2022/05/16 03:57:16;;;;;;;7.00;3.00;;;12.30;99.90;;;;;;5018395;28;20548;-77
2022/05/16 03:59:41;;;;;;;5.20;3.70;;;12.30;99.90;;;;;;5036013;28;20219;-76
2022/05/16 04:02:08;;;;;;;6.03;3.17;;;12.30;99.90;;;;;;5036376;28;20175;-76
2022/05/16 04:04:34;;;;;;;6.97;3.30;;;12.30;99.90;;;;;;5018370;28;20595;-76
2022/05/16 04:06:59;;;;;;;4.10;3.60;;;12.30;99.90;;;;;;5036206;28;20261;-76
2022/05/16 04:09:25;;;;;;;6.67;3.43;;;12.20;99.90;;;;;;5039419;28;20252;-75
2022/05/16 04:11:50;;;;;;;6.07;3.47;;;12.20;99.90;;;;;;5055870;28;20168;-76
2022/05/16 04:14:16;;;;;;;6.30;3.40;;;12.20;99.90;;;;;;5038013;28;20172;-76
2022/05/16 04:16:41;;;;;;;7.73;3.67;;;12.20;99.90;;;;;;5055757;28;20218;-75
2022/05/16 04:19:07;;;;;;;4.23;2.97;;;12.20;99.90;;;;;;5055582;28;20249;-76
2022/05/16 04:21:38;;;;;;;5.83;3.43;;;12.20;99.90;;;;;;5037799;28;20175;-76
2022/05/16 04:24:05;;;;;;;7.27;3.50;;;12.20;99.90;;;;;;5054775;28;20163;-78
2022/05/16 04:26:30;;;;;;;6.60;3.67;;;12.20;99.90;;;;;;5044683;28;20173;-77
2022/05/16 04:28:57;;;;;;;4.90;3.13;;;12.20;99.90;;;;;;5035576;28;20249;-76
2022/05/16 04:31:23;;;;;;;5.43;3.50;;;12.20;99.90;;;;;;5035743;28;20164;-76
2022/05/16 04:33:48;;;;;;;5.47;3.67;;;12.20;99.90;;;;;;5035441;28;20176;-76
2022/05/16 04:36:14;;;;;;;4.47;3.13;;;12.20;99.90;;;;;;5035710;28;20168;-76
2022/05/16 04:38:39;;;;;;;6.60;3.60;;;12.20;99.90;;;;;;5035264;28;20594;-76
2022/05/16 04:43:50;;;;;;;7.30;3.67;;;12.20;99.90;;;;;;5045339;28;20186;-77
2022/05/16 04:46:16;;;;;;;7.07;3.10;;;12.20;99.90;;;;;;5055972;28;20638;-77
2022/05/16 04:48:41;;;;;;;4.77;3.80;;;12.30;99.90;;;;;;5037609;28;20281;-77
2022/05/16 04:51:07;;;;;;;4.60;3.50;;;12.30;99.90;;;;;;5055503;28;20179;-77
2022/05/16 04:53:33;;;;;;;7.50;3.50;;;12.30;99.90;;;;;;5037566;28;20172;-76
2022/05/16 04:55:59;;;;;;;4.33;3.10;;;12.30;99.90;;;;;;5056240;28;20229;-76
2022/05/16 04:58:25;;;;;;;4.47;3.47;;;12.40;99.90;;;;;;5034819;28;20249;-78
2022/05/16 05:00:50;;;;;;;4.03;3.37;;;12.30;99.90;;;;;;5055465;28;20199;-77
2022/05/16 05:03:16;;;;;;;4.50;3.50;;;12.40;99.90;;;;;;5037518;28;20176;-77
2022/05/16 05:05:41;;;;;;;5.33;3.17;;;12.40;99.90;;;;;;5037341;28;20255;-77
2022/05/16 05:08:08;;;;;;;5.93;3.53;;;12.50;99.90;;;;;;5037489;28;20187;-78
2022/05/16 05:16:12;;;;;;;4.93;3.30;;;12.60;99.90;;;;;;5050563;28;20734;-75
2022/05/16 05:18:39;;;;;;;6.17;3.90;;;12.70;99.90;;;;;;5037784;28;20628;-77
2022/05/16 05:21:06;;;;;;;5.90;4.07;;;12.70;99.90;;;;;;5037700;28;20208;-77
2022/05/16 05:23:33;;;;;;;5.37;2.83;;;12.80;99.90;;;;;;5056780;28;20194;-77
2022/05/16 05:25:58;;;;;;;5.77;2.93;;;12.80;99.90;;;;;;5037032;28;20176;-77
2022/05/16 05:28:24;;;;;;;4.63;3.20;;;12.90;99.90;;;;;;5057640;28;20538;-78
2022/05/16 05:30:50;;;;;;;4.63;3.13;;;13.00;99.90;;;;;;5039595;28;20346;-78
2022/05/16 05:33:15;;;;;;;7.63;3.47;;;13.00;99.90;;;;;;5057595;28;20529;-79
2022/05/16 05:35:41;;;;;;;5.83;3.37;;;13.10;99.90;;;;;;5038926;28;20171;-77
2022/05/16 05:38:09;;;;;;;6.60;3.43;;;13.10;99.90;;;;;;5037167;28;20203;-79
2022/05/16 05:40:34;;;;;;;7.70;4.03;;;13.20;99.90;;;;;;5037761;28;20195;-80
2022/05/16 05:43:05;;;;;;;5.87;3.40;;;13.30;99.90;;;;;;5032538;28;20270;-75
2022/05/16 05:45:31;;;;;;;8.70;4.07;;;13.30;99.90;;;;;;5054318;28;20171;-75
2022/05/16 05:47:57;;;;;;;4.30;3.13;;;13.40;99.90;;;;;;5054206;28;20191;-76
2022/05/16 05:50:24;;;;;;;5.93;3.47;;;13.50;99.90;;;;;;5054077;28;20198;-75
2022/05/16 05:52:49;;;;;;;5.30;3.77;;;13.60;99.90;;;;;;5036374;28;20206;-75
2022/05/16 05:55:15;;;;;;;6.73;3.87;;;13.70;99.90;;;;;;5048623;28;20593;-76
2022/05/16 05:57:41;;;;;;;5.40;3.00;;;13.80;99.90;;;;;;5034188;28;20570;-75
2022/05/16 06:00:09;;;;;;;6.60;3.57;;;13.90;99.90;;;;;;5016292;28;20287;-75
2022/05/16 06:02:37;;;;;;;4.43;3.10;;;14.00;99.90;;;;;;5016239;28;20206;-76
2022/05/16 06:05:03;;;;;;;7.53;3.50;;;14.10;99.90;;;;;;5033849;28;20215;-75
2022/05/16 06:07:29;;;;;;;7.47;3.60;;;14.10;99.90;;;;;;5034278;28;20226;-76
2022/05/16 06:09:55;;;;;;;7.67;3.60;;;14.20;99.90;;;;;;5018886;28;20181;-79
2022/05/16 06:12:20;;;;;;;4.57;2.80;;;14.30;99.90;;;;;;5030078;28;20282;-79
2022/05/16 06:14:46;;;;;;;7.23;3.47;;;14.50;99.90;;;;;;5058294;28;20701;-77
2022/05/16 06:17:12;;;;;;;4.83;3.03;;;14.60;99.90;;;;;;5056072;28;20191;-78
2022/05/16 06:19:38;;;;;;;7.30;3.10;;;14.80;99.90;;;;;;5054875;28;20277;-77
2022/05/16 06:22:04;;;;;;;3.97;3.17;;;14.90;99.90;;;;;;5036873;28;20172;-78
2022/05/16 06:27:13;;;;;;;5.40;3.10;;;15.20;99.90;;;;;;5051363;28;20190;-79
2022/05/16 06:29:39;;;;;;;6.53;2.77;;;15.30;99.90;;;;;;5035971;28;20183;-78
2022/05/16 06:32:05;;;;;;;4.57;2.63;;;15.50;99.90;;;;;;5053968;28;20218;-77
2022/05/16 06:34:31;;;;;;;8.43;2.67;;;15.60;99.90;;;;;;5035724;28;20283;-77
2022/05/16 06:36:57;;;;;;;6.30;2.63;;;15.80;99.90;;;;;;5053710;28;20207;-77
2022/05/16 06:39:22;;;;;;;11.07;3.00;;;16.00;99.90;;;;;;5054660;28;20222;-78
2022/05/16 06:41:49;;;;;;;5.63;2.30;;;16.10;99.90;;;;;;5052660;28;20188;-77
2022/05/16 06:44:15;;;;;;;4.53;2.20;;;16.30;99.90;;;;;;5034127;28;20182;-78
2022/05/16 06:46:41;;;;;;;7.30;2.40;;;16.40;99.90;;;;;;5052887;28;20653;-77
2022/05/16 06:49:07;;;;;;;6.40;2.03;;;16.60;99.90;;;;;;5053834;28;20178;-77
2022/05/16 06:51:33;;;;;;;8.87;2.77;;;16.70;99.90;;;;;;5036328;28;20175;-77
2022/05/16 06:53:59;;;;;;;5.57;2.10;;;16.90;81.50;;;;;;5036079;28;20207;-78
2022/05/16 06:56:25;;;;;;;6.87;2.23;;;17.00;1.00;;;;;;5054014;28;20178;-78
2022/05/16 06:58:50;;;;;;;7.93;2.10;;;17.10;1.00;;;;;;5051017;28;20202;-77
2022/05/16 07:01:16;;;;;;;12.43;2.60;;;17.20;99.90;;;;;;5054844;28;20703;-77
2022/05/16 07:03:43;;;;;;;5.43;2.30;;;17.30;99.90;;;;;;5054041;28;20250;-78
2022/05/16 07:06:09;;;;;;;9.10;2.77;;;17.40;1.00;;;;;;5036090;28;20305;-78
2022/05/16 07:08:35;;;;;;;7.20;2.00;;;17.50;1.00;;;;;;5054044;28;20191;-78
2022/05/16 07:11:01;;;;;;;8.97;2.63;;;17.60;99.90;;;;;;5053817;28;20179;-77
2022/05/16 07:13:27;;;;;;;6.83;2.40;;;17.70;96.80;;;;;;5035892;28;20178;-77
2022/05/16 07:15:54;;;;;;;6.03;2.73;;;17.80;1.00;;;;;;5050932;28;20183;-78
2022/05/16 07:18:20;;;;;;;7.47;2.27;;;17.80;99.90;;;;;;5055259;28;20552;-78
2022/05/16 07:20:46;;;;;;;6.80;2.23;;;17.90;99.90;;;;;;5036677;28;20195;-77
2022/05/16 07:23:13;;;;;;;3.97;1.70;;;18.00;91.30;;;;;;5037175;28;20176;-78
2022/05/16 07:28:24;;;;;;;7.40;2.60;;;18.10;99.90;;;;;;5054565;28;20687;-78
2022/05/16 07:30:50;;;;;;;8.07;3.23;;;18.20;1.00;;;;;;5053932;28;20172;-78
2022/05/16 07:33:17;;;;;;;5.90;2.10;;;18.20;19.10;;;;;;5053309;28;20201;-78
2022/05/16 07:35:43;;;;;;;6.87;2.40;;;18.30;1.00;;;;;;5054347;28;20168;-78
2022/05/16 07:38:08;;;;;;;8.10;2.63;;;18.30;1.00;;;;;;5051254;28;20313;-78
2022/05/16 07:40:37;;;;;;;5.93;2.30;;;18.30;1.00;;;;;;5033908;28;20600;-78
2022/05/16 07:43:04;;;;;;;5.63;2.70;;;18.40;1.00;;;;;;5033372;28;20183;-78
2022/05/16 07:45:29;;;;;;;6.07;2.20;;;18.40;1.00;;;;;;5024927;28;20233;-78
2022/05/16 07:47:55;;;;;;;7.23;2.40;;;18.40;99.90;;;;;;5027387;28;20685;-78
2022/05/16 07:50:24;;;;;;;11.87;2.80;;;18.40;99.90;;;;;;5054366;28;20184;-78
2022/05/16 07:52:51;;;;;;;9.03;2.40;;;18.40;1.00;;;;;;5036319;28;20695;-77
2022/05/16 07:55:23;;;;;;;9.13;2.90;;;18.40;1.00;;;;;;5054147;28;20258;-78
2022/05/16 07:57:49;;;;;;;9.07;2.97;;;18.40;1.00;;;;;;5036859;28;20223;-78
2022/05/16 08:00:16;;;;;;;6.60;3.00;;;18.30;5.80;;;;;;5040454;28;20582;-78
2022/05/16 08:02:41;;;;;;;6.03;3.67;;;18.20;1.00;;;;;;5055336;28;20252;-78
2022/05/16 08:05:09;;;;;;;6.93;3.00;;;18.20;99.90;;;;;;5061163;28;20215;-78
2022/05/16 08:07:34;;;;;;;6.90;3.00;;;18.10;99.90;;;;;;5057986;28;20226;-78
2022/05/16 08:12:44;;;;;;;5.63;3.07;;;17.90;99.90;;;;;;5059405;28;20230;-77
2022/05/16 08:15:10;;;;;;;8.17;3.40;;;17.90;99.90;;;;;;5058660;28;20184;-78
2022/05/16 08:17:35;;;;;;;6.60;3.03;;;17.90;99.90;;;;;;5048704;28;20204;-78
2022/05/16 08:20:04;;;;;;;4.97;3.27;;;17.80;99.90;;;;;;5038701;28;20208;-78
2022/05/16 08:22:34;;;;;;;7.87;3.67;;;17.80;99.90;;;;;;5038296;28;20217;-77
2022/05/16 08:25:00;;;;;;;6.53;3.40;;;17.80;99.90;;;;;;5021099;28;20176;-78
2022/05/16 08:27:26;;;;;;;10.50;3.07;;;17.80;99.90;;;;;;5038203;28;20195;-78
2022/05/16 08:29:53;;;;;;;8.87;3.53;;;17.80;99.90;;;;;;5020669;28;20187;-78
2022/05/16 08:32:25;;;;;;;8.90;3.83;;;17.80;99.90;;;;;;5037758;28;20238;-79
2022/05/16 08:34:56;;;;;;;10.27;3.27;;;17.60;99.90;;;;;;5038401;28;20172;-78
2022/05/16 08:40:07;;;;;;;5.17;2.47;;;17.80;99.90;;;;;;5039852;28;20246;-79
2022/05/16 08:42:53;;;;;;;10.17;3.63;;;17.80;99.90;;;;;;5040046;28;20222;-79
2022/05/16 08:45:33;;;;;;;6.00;3.20;;;17.80;99.90;;;;;;5040346;28;20145;-79
2022/05/16 08:48:10;;;;;;;8.03;3.00;;;17.80;99.90;;;;;;5021702;28;20219;-79
2022/05/16 08:50:50;;;;;;;6.83;3.00;;;17.80;99.90;;;;;;5040797;28;20171;-79
2022/05/16 08:53:23;;;;;;;5.60;2.67;;;17.80;99.90;;;;;;5040681;28;20541;-79
2022/05/16 08:55:52;;;;;;;7.57;3.30;;;17.80;99.90;;;;;;5022067;28;20184;-79
2022/05/16 08:58:33;;;;;;;6.57;3.00;;;17.90;99.90;;;;;;5022103;28;20666;-79
2022/05/16 09:01:13;;;;;;;8.73;3.27;;;17.90;99.90;;;;;;5022171;28;20211;-79
2022/05/16 09:03:46;;;;;;;8.50;3.00;;;18.00;99.90;;;;;;5021174;28;20176;-81
2022/05/16 09:06:46;;;;;;;7.00;3.07;;;18.10;99.90;;;;;;5018761;28;20169;-79
2022/05/16 09:09:17;;;;;;;6.53;4.17;;;18.20;99.90;;;;;;5002817;28;20212;-79
2022/05/16 09:11:59;;;;;;;7.20;2.80;;;18.20;99.90;;;;;;5019153;28;20538;-79
2022/05/16 09:14:52;;;;;;;6.47;3.33;;;18.30;65.60;;;;;;5019140;28;20165;-79
2022/05/16 09:17:49;;;;;;;5.60;3.23;;;18.40;1.00;;;;;;5001076;28;20637;-79
2022/05/16 09:20:38;;;;;;;7.53;3.17;;;18.50;1.00;;;;;;5003428;28;20189;-80
2022/05/16 09:23:30;;;;;;;5.23;2.90;;;18.60;1.00;;;;;;5019435;28;20153;-79
2022/05/16 09:26:01;;;;;;;5.87;2.93;;;18.70;1.00;;;;;;5033907;28;20203;-79
2022/05/16 09:28:37;;;;;;;7.10;3.37;;;18.80;1.00;;;;;;5039643;28;20191;-79
2022/05/16 09:31:13;;;;;;;5.37;3.00;;;18.80;1.00;;;;;;5040547;28;20164;-79
2022/05/16 09:33:48;;;;;;;5.43;3.20;;;18.90;1.00;;;;;;5059040;28;20186;-79
2022/05/16 09:36:21;;;;;;;4.40;2.67;;;18.80;1.00;;;;;;5059283;28;20242;-79
2022/05/16 09:38:47;;;;;;;4.90;2.87;;;19.10;1.00;;;;;;5062253;23;20228;-78
2022/05/16 09:41:35;;;;;;;5.10;3.10;;;19.20;99.90;;;;;;5056143;28;20252;-78
2022/05/16 09:44:10;;;;;;;4.73;2.40;;;19.50;99.90;;;;;;5037998;28;20159;-78
2022/05/16 09:46:42;;;;;;;4.60;2.60;;;19.60;99.90;;;;;;5038046;28;20622;-78
2022/05/16 09:49:19;;;;;;;6.87;2.57;;;19.90;99.90;;;;;;5055501;28;20187;-78
2022/05/16 09:51:53;;;;;;;5.50;2.83;;;20.10;1.00;;;;;;5037391;28;20172;-77
2022/05/16 09:54:30;;;;;;;3.43;2.13;;;20.30;64.50;;;;;;5019488;28;20314;-78
2022/05/16 09:57:05;;;;;;;5.70;2.33;;;20.50;1.00;;;;;;5035189;28;20622;-78
2022/05/16 09:59:45;;;;;;;6.97;2.70;;;20.60;99.90;;;;;;5035519;28;20195;-78
2022/05/16 10:02:29;;;;;;;7.17;2.60;;;20.70;1.00;;;;;;5034066;28;20540;-78
2022/05/16 10:05:00;;;;;;;4.63;2.27;;;20.90;1.00;;;;;;5035501;28;20302;-78
2022/05/16 10:07:30;;;;;;;4.77;2.10;;;21.00;1.00;;;;;;5035158;28;20184;-78
2022/05/16 10:09:57;;;;;;;5.50;2.40;;;21.10;1.00;;;;;;5046337;28;20176;-78
2022/05/16 10:12:26;;;;;;;2.77;1.70;;;21.20;99.90;;;;;;5055900;28;20256;-79
2022/05/16 10:14:52;;;;;;;4.90;2.30;;;21.30;1.00;;;;;;5055522;28;20213;-79
2022/05/16 10:17:34;;;;;;;5.67;2.33;;;21.40;1.00;;;;;;5037593;28;20176;-79
2022/05/16 10:20:07;;;;;;;5.33;2.17;;;21.50;1.00;;;;;;5055738;28;20209;-79
2022/05/16 10:22:33;;;;;;;5.53;2.50;;;21.60;1.00;;;;;;5054771;28;20191;-79
2022/05/16 10:24:59;;;;;;;7.60;2.80;;;21.70;1.00;;;;;;5036003;28;20167;-79
2022/05/16 10:27:32;;;;;;;4.37;2.00;;;21.80;60.50;;;;;;5051871;28;20685;-79
2022/05/16 10:30:02;;;;;;;6.53;2.50;;;22.00;1.00;;;;;;5037001;28;20671;-79
2022/05/16 10:35:34;;;;;;;10.97;2.50;;;22.20;99.90;;;;;;5056101;28;20159;-79
2022/05/16 10:38:13;;;;;;;4.77;2.60;;;22.40;1.00;;;;;;5056316;28;20230;-79
2022/05/16 10:40:45;;;;;;;5.90;2.63;;;22.50;99.90;;;;;;5039476;28;20188;-78
2022/05/16 10:43:25;;;;;;;7.47;2.53;;;22.60;99.90;;;;;;5040823;28;20252;-77
2022/05/16 10:46:01;;;;;;;12.33;2.83;;;22.80;94.70;;;;;;5040354;28;20194;-78
2022/05/16 10:48:50;;;;;;;5.40;2.33;;;22.90;99.90;;;;;;5059070;28;20191;-78
2022/05/16 10:51:42;;;;;;;6.27;2.07;;;23.10;99.90;;;;;;5059305;28;20171;-78
2022/05/16 10:54:21;;;;;;;4.40;2.33;;;23.20;1.00;;;;;;5062493;28;20190;-78
2022/05/16 10:57:17;;;;;;;4.20;2.33;;;23.30;99.90;;;;;;5052241;28;20160;-78
2022/05/16 11:00:01;;;;;;;6.60;2.57;;;23.50;1.00;;;;;;5040805;28;20224;-78
2022/05/16 11:03:01;;;;;;;6.73;2.20;;;23.80;1.00;;;;;;5055926;28;20152;-79
2022/05/16 11:05:39;;;;;;;4.13;2.03;;;23.90;1.00;;;;;;5054041;28;20167;-79
2022/05/16 11:08:32;;;;;;;5.90;2.30;;;24.00;25.40;;;;;;5036962;28;20195;-79
2022/05/16 11:11:01;;;;;;;3.23;1.80;;;24.20;1.00;;;;;;5036793;28;20170;-79
2022/05/16 11:13:36;;;;;;;3.93;2.00;;;24.20;1.00;;;;;;5054997;28;20172;-78
2022/05/16 11:16:26;;;;;;;5.50;2.23;;;24.40;99.90;;;;;;5037101;28;20171;-79
2022/05/16 11:19:16;;;;;;;4.63;2.07;;;24.60;1.00;;;;;;5054581;28;20187;-79
2022/05/16 11:22:06;;;;;;;6.63;2.03;;;24.70;6.90;;;;;;5055890;28;20164;-79
2022/05/16 11:24:54;;;;;;;5.43;1.80;;;24.80;1.00;;;;;;5055311;28;20163;-79
2022/05/16 11:27:33;;;;;;;4.03;1.87;;;24.70;99.90;;;;;;5037536;28;20176;-80
2022/05/16 11:30:07;;;;;;;5.73;2.00;;;24.90;1.00;;;;;;5037772;28;20174;-80
2022/05/16 11:32:54;;;;;;;4.63;1.87;;;24.80;1.00;;;;;;5055916;28;20190;-80
2022/05/16 11:35:25;;;;;;;6.13;1.87;;;24.90;99.90;;;;;;5040850;28;20179;-80
2022/05/16 11:38:16;;;;;;;4.40;1.83;;;25.00;1.00;;;;;;5059126;28;20632;-79
2022/05/16 11:41:08;;;;;;;5.77;1.83;;;25.10;1.00;;;;;;5041483;28;20192;-79
2022/05/16 11:43:41;;;;;;;5.20;1.77;;;25.00;33.40;;;;;;5058959;28;20164;-79
2022/05/16 11:46:28;;;;;;;6.93;2.33;;;25.00;99.90;;;;;;5058852;28;20166;-79
2022/05/16 11:49:23;;;;;;;7.60;2.37;;;25.00;1.00;;;;;;5059552;28;20235;-79
2022/05/16 11:51:48;;;;;;;4.43;2.20;;;24.90;99.90;;;;;;5059710;28;20160;-79
2022/05/16 11:54:17;;;;;;;7.20;2.40;;;24.80;99.90;;;;;;5041325;28;20672;-80
2022/05/16 12:02:35;;;;;;;7.27;3.47;;;24.60;99.90;;;;;;5061886;28;20231;-80
2022/05/16 12:05:00;;;;;;;4.47;2.50;;;24.40;99.90;;;;;;5060910;28;20172;-79
2022/05/16 12:07:40;;;;;;;9.33;3.63;;;24.20;1.00;;;;;;5060602;28;20215;-79
2022/05/16 12:10:15;;;;;;;22.63;4.90;;;23.90;1.00;;;;;;5041925;28;20174;-81
2022/05/16 12:12:47;;;;;;;14.67;4.47;;;23.50;99.90;;;;;;5042994;28;20191;-81
2022/05/16 12:15:16;;;;;;;6.80;3.57;;;23.40;99.90;;;;;;5061856;28;20154;-83
2022/05/16 12:17:54;;;;;;;7.23;3.30;;;23.40;99.90;;;;;;5043988;28;20191;-83
2022/05/16 12:20:42;;;;;;;11.70;3.70;;;23.40;99.90;;;;;;5044025;28;20206;-83
2022/05/16 12:23:12;;;;;;;8.33;3.80;;;23.50;99.90;;;;;;5043330;28;20262;-83
2022/05/16 12:25:40;;;;;;;10.23;3.80;;;23.60;99.90;;;;;;5061501;28;20187;-83
2022/05/16 12:28:19;;;;;;;6.50;3.83;;;23.70;99.90;;;;;;5044284;28;20545;-83
2022/05/16 12:30:52;;;;;;;4.73;3.50;;;23.80;99.90;;;;;;5061481;28;20167;-82
2022/05/16 12:33:35;;;;;;;6.50;3.60;;;23.90;99.90;;;;;;5061531;28;20164;-82
2022/05/16 12:36:01;;;;;;;7.20;3.43;;;23.90;99.90;;;;;;5058848;28;20171;-81
2022/05/16 12:38:29;;;;;;;8.60;3.63;;;24.00;1.00;;;;;;5059183;28;20219;-82
2022/05/16 12:41:06;;;;;;;7.07;3.47;;;24.00;99.90;;;;;;5058898;28;20199;-81
2022/05/16 12:43:57;;;;;;;7.07;3.40;;;23.90;99.90;;;;;;5057219;28;20197;-81
2022/05/16 12:46:44;;;;;;;9.70;3.80;;;23.90;99.90;;;;;;5057905;28;20164;-81
2022/05/16 12:49:49;;;;;;;5.33;3.47;;;23.80;99.90;;;;;;5058477;28;20191;-81
2022/05/16 12:52:36;;;;;;;7.43;3.37;;;23.70;99.90;;;;;;5041051;28;20229;-81
2022/05/16 12:55:32;;;;;;;7.47;3.50;;;23.70;99.90;;;;;;5057269;28;20218;-82
2022/05/16 12:58:10;;;;;;;9.53;4.40;;;23.70;99.90;;;;;;5040773;28;20195;-81
2022/05/16 13:00:46;;;;;;;4.60;3.60;;;23.50;99.90;;;;;;5040936;28;20245;-81
2022/05/16 13:03:42;;;;;;;10.80;4.47;;;23.40;99.90;;;;;;5058228;28;20186;-82
2022/05/16 13:06:27;;;;;;;8.83;3.83;;;23.10;99.90;;;;;;5041571;28;20168;-81
2022/05/16 13:09:08;;;;;;;7.57;3.50;;;22.90;1.00;;;;;;5058345;28;20301;-80
2022/05/16 13:11:51;;;;;;;8.93;4.13;;;22.80;1.00;;;;;;5059803;28;20251;-81
2022/05/16 13:14:49;;;;;;;6.27;4.17;;;22.70;1.00;;;;;;5062438;28;20180;-81
2022/05/16 13:17:48;;;;;;;5.90;3.97;;;22.50;99.90;;;;;;5056171;28;20159;-80
2022/05/16 13:20:18;;;;;;;9.97;4.90;;;22.50;99.90;;;;;;5041062;28;20640;-79
2022/05/16 13:22:48;;;;;;;9.33;5.20;;;22.40;99.90;;;;;;5058033;28;20199;-78
2022/05/16 13:25:17;;;;;;;11.40;4.47;;;22.40;99.90;;;;;;5058981;28;20594;-79
2022/05/16 13:30:35;;;;;;;11.13;4.30;;;22.20;99.90;;;;;;5058102;28;20194;-79
2022/05/16 13:33:00;;;;;;;7.93;3.50;;;22.10;15.40;;;;;;5039771;28;20565;-81
2022/05/16 13:35:36;;;;;;;6.50;3.73;;;21.90;42.40;;;;;;5039323;28;20553;-79
2022/05/16 13:38:03;;;;;;;19.50;6.30;;;21.90;1.00;;;;;;5039326;28;20218;-79
2022/05/16 13:40:38;;;;;;;12.33;5.53;;;21.90;99.90;;;;;;5056299;28;20230;-80
2022/05/16 13:43:27;;;;;;;17.97;6.07;;;21.80;99.90;;;;;;5038947;28;20541;-80
2022/05/16 13:46:12;;;;;;;14.43;6.20;;;21.60;99.90;;;;;;5038745;28;20229;-80
2022/05/16 13:48:37;;;;;;;18.77;5.83;;;21.50;99.90;;;;;;5056210;28;20645;-80
2022/05/16 13:51:04;;;;;;;15.17;6.43;;;21.30;99.90;;;;;;5038178;28;20206;-80